Time;durP1;ratioP1;P1;durP2;ratioP2;P2;SDS_P1;SDS_P2;PMS_P1;PMS_P2;Temp;Humidity;BMP_temperature;BMP_pressure;BME280_temperature;BME280_humidity;BME280_pressure;Samples;Min_cycle;Max_cycle;Signal;HPM_P1;HPM_P2
2022/12/18 00:01:18;;;;;;;13.40;7.50;;;0.70;99.90;;;;;;5103785;28;20062;-67
2022/12/18 00:03:45;;;;;;;13.82;7.00;;;0.70;99.90;;;;;;5106278;27;20162;-65
2022/12/18 00:06:14;;;;;;;12.57;7.18;;;0.70;99.90;;;;;;5099134;28;20071;-71
2022/12/18 00:08:42;;;;;;;11.57;8.20;;;0.80;99.90;;;;;;5102518;28;20063;-66
2022/12/18 00:11:12;;;;;;;11.48;8.93;;;0.80;99.90;;;;;;5102723;28;20044;-66
2022/12/18 00:13:39;;;;;;;17.05;8.07;;;0.80;99.90;;;;;;5098006;28;20051;-66
2022/12/18 00:16:09;;;;;;;17.10;7.80;;;0.70;99.90;;;;;;5095965;28;20668;-64
2022/12/18 00:18:37;;;;;;;14.05;8.80;;;0.70;99.90;;;;;;5103236;28;20047;-64
2022/12/18 00:21:07;;;;;;;13.98;9.30;;;0.60;99.90;;;;;;5103945;28;20694;-67
2022/12/18 00:23:36;;;;;;;13.85;9.35;;;0.60;99.90;;;;;;5101605;28;20108;-64
2022/12/18 00:26:06;;;;;;;18.63;9.77;;;0.60;99.90;;;;;;5101228;28;20552;-70
2022/12/18 00:28:33;;;;;;;13.90;8.05;;;0.60;99.90;;;;;;5101984;28;20450;-66
2022/12/18 00:31:05;;;;;;;16.15;8.93;;;0.60;99.90;;;;;;5087548;28;20070;-65
2022/12/18 00:33:33;;;;;;;19.80;9.50;;;0.60;99.90;;;;;;5098074;28;20058;-66
2022/12/18 00:36:04;;;;;;;14.55;8.70;;;0.50;99.90;;;;;;5101440;28;20044;-65
2022/12/18 00:38:32;;;;;;;16.60;9.68;;;0.60;99.90;;;;;;5091961;28;20051;-64
2022/12/18 00:40:59;;;;;;;15.20;9.50;;;0.60;99.90;;;;;;5102235;28;20040;-66
2022/12/18 00:43:26;;;;;;;14.48;9.82;;;0.60;99.90;;;;;;5103168;28;20043;-65
2022/12/18 00:45:54;;;;;;;15.05;10.10;;;0.60;99.90;;;;;;5101031;28;20048;-65
2022/12/18 00:48:21;;;;;;;16.08;10.52;;;0.60;99.90;;;;;;5100826;28;20073;-65
2022/12/18 00:50:49;;;;;;;16.33;10.30;;;0.70;99.90;;;;;;5104638;28;20055;-67
2022/12/18 00:53:16;;;;;;;20.60;12.32;;;0.70;99.90;;;;;;5098793;28;20119;-69
2022/12/18 00:55:44;;;;;;;23.10;10.65;;;0.70;99.90;;;;;;5099952;28;20054;-66
2022/12/18 00:58:12;;;;;;;19.60;11.38;;;0.70;99.90;;;;;;5100699;28;20474;-65
2022/12/18 01:00:39;;;;;;;18.33;10.77;;;0.70;99.90;;;;;;5100761;28;20100;-65
2022/12/18 01:03:12;;;;;;;;;;;0.80;99.90;;;;;;5097928;28;20070;-66
2022/12/18 01:05:41;;;;;;;20.35;11.30;;;0.80;99.90;;;;;;5102197;28;19927;-67
2022/12/18 01:08:08;;;;;;;16.95;12.00;;;0.80;99.90;;;;;;5099949;28;20068;-66
2022/12/18 01:10:35;;;;;;;19.10;11.55;;;0.80;99.90;;;;;;5078122;28;20116;-64
2022/12/18 01:13:02;;;;;;;22.15;11.43;;;0.80;99.90;;;;;;5083507;28;20561;-65
2022/12/18 01:15:29;;;;;;;20.90;11.52;;;0.80;99.90;;;;;;5101838;28;20146;-71
2022/12/18 01:17:56;;;;;;;25.98;12.70;;;0.80;99.90;;;;;;5098202;28;20148;-68
2022/12/18 01:20:26;;;;;;;13.20;8.00;;;0.80;99.90;;;;;;5086924;28;20120;-66
2022/12/18 01:22:53;;;;;;;17.35;11.18;;;0.80;99.90;;;;;;5102781;28;20093;-67
2022/12/18 01:25:19;;;;;;;16.27;11.27;;;0.80;99.90;;;;;;5103167;28;20043;-65
2022/12/18 01:27:46;;;;;;;25.30;11.55;;;0.70;99.90;;;;;;5098980;27;20151;-65
2022/12/18 01:30:13;;;;;;;17.77;11.20;;;0.70;99.90;;;;;;5100188;28;20135;-69
2022/12/18 01:32:40;;;;;;;18.60;10.25;;;0.70;99.90;;;;;;5099748;28;20050;-65
2022/12/18 01:35:08;;;;;;;15.75;10.07;;;0.60;99.90;;;;;;5077497;28;20056;-66
2022/12/18 01:37:35;;;;;;;14.65;9.75;;;0.60;99.90;;;;;;5096854;28;20052;-68
2022/12/18 01:40:02;;;;;;;15.98;9.40;;;0.50;99.90;;;;;;5095004;28;20535;-65
2022/12/18 01:42:28;;;;;;;14.48;9.90;;;0.50;99.90;;;;;;5070526;28;20040;-66
2022/12/18 01:45:04;;;;;;;14.48;9.15;;;0.40;99.90;;;;;;5082993;28;20507;-66
2022/12/18 01:47:52;;;;;;;16.85;10.30;;;0.40;99.90;;;;;;5078727;28;20052;-66
2022/12/18 01:50:21;;;;;;;17.15;9.73;;;0.30;99.90;;;;;;5079616;28;20055;-66
2022/12/18 01:53:11;;;;;;;13.60;8.93;;;0.30;99.90;;;;;;5075372;28;20048;-65
2022/12/18 01:55:51;;;;;;;11.93;8.88;;;0.20;99.90;;;;;;5084430;28;20098;-65
2022/12/18 01:58:21;;;;;;;15.52;10.63;;;0.20;99.90;;;;;;5072399;28;20055;-66
2022/12/18 02:00:48;;;;;;;13.85;9.48;;;0.20;99.90;;;;;;5082507;28;20066;-65
2022/12/18 02:03:18;;;;;;;16.27;10.85;;;0.20;99.90;;;;;;5083500;28;20499;-65
2022/12/18 02:06:27;;;;;;;15.82;10.82;;;0.20;99.90;;;;;;5083263;28;20051;-66
2022/12/18 02:09:10;;;;;;;18.80;11.45;;;0.20;99.90;;;;;;5077033;28;20899;-70
2022/12/18 02:11:57;;;;;;;16.80;10.90;;;0.20;99.90;;;;;;5079216;28;20126;-65
2022/12/18 02:14:44;;;;;;;17.50;10.10;;;0.20;99.90;;;;;;5072948;28;20048;-65
2022/12/18 02:17:23;;;;;;;21.33;10.35;;;0.20;99.90;;;;;;5081623;28;20048;-66
2022/12/18 02:20:09;;;;;;;17.63;10.10;;;0.20;99.90;;;;;;5066518;28;20462;-65
2022/12/18 02:22:57;;;;;;;13.27;7.97;;;0.20;99.90;;;;;;5081881;28;20056;-65
2022/12/18 02:26:14;;;;;;;18.77;10.98;;;0.20;99.90;;;;;;5083864;28;20139;-66
2022/12/18 02:28:57;;;;;;;15.52;9.15;;;0.20;99.90;;;;;;4999689;28;20074;-65
2022/12/18 02:31:30;;;;;;;15.20;8.82;;;0.30;99.90;;;;;;5078339;28;20067;-65
2022/12/18 02:34:01;;;;;;;14.00;8.80;;;0.30;99.90;;;;;;5084096;28;20501;-70
2022/12/18 02:36:37;;;;;;;12.57;9.20;;;0.30;99.90;;;;;;5082230;28;20056;-65
2022/12/18 02:39:07;;;;;;;16.67;10.30;;;0.30;99.90;;;;;;5082867;28;20477;-66
2022/12/18 02:41:37;;;;;;;20.85;9.85;;;0.40;99.90;;;;;;5080901;28;20048;-65
2022/12/18 02:44:09;;;;;;;14.82;9.68;;;0.40;99.90;;;;;;5080003;28;20051;-66
2022/12/18 02:46:40;;;;;;;18.17;11.20;;;0.40;99.90;;;;;;5090403;28;20100;-65
2022/12/18 02:49:16;;;;;;;14.18;9.38;;;0.40;99.90;;;;;;5079045;28;20092;-69
2022/12/18 02:52:20;;;;;;;17.95;10.25;;;0.40;99.90;;;;;;5079645;28;20484;-64
2022/12/18 02:55:20;;;;;;;15.23;8.85;;;0.40;99.90;;;;;;5092648;28;20066;-64
2022/12/18 02:58:07;;;;;;;14.85;9.43;;;0.40;99.90;;;;;;5080303;28;20130;-66
2022/12/18 03:00:53;;;;;;;13.68;8.55;;;0.40;99.90;;;;;;5078178;28;20048;-70
2022/12/18 03:03:38;;;;;;;14.77;8.25;;;0.40;99.90;;;;;;5094826;28;20104;-65
2022/12/18 03:06:23;;;;;;;17.23;10.77;;;0.50;99.90;;;;;;5081816;28;20055;-66
2022/12/18 03:08:57;;;;;;;13.52;8.93;;;0.50;99.90;;;;;;5082461;28;20931;-65
2022/12/18 03:14:16;;;;;;;12.63;7.82;;;0.50;99.90;;;;;;5078435;28;20366;-70
2022/12/18 03:16:49;;;;;;;15.18;8.88;;;0.60;99.90;;;;;;5081210;28;20150;-65
2022/12/18 03:19:21;;;;;;;13.55;7.80;;;0.50;99.90;;;;;;5074711;28;20062;-65
2022/12/18 03:21:54;;;;;;;14.27;8.90;;;0.50;99.90;;;;;;5080727;28;20071;-64
2022/12/18 03:24:26;;;;;;;12.88;8.95;;;0.60;99.90;;;;;;5074309;28;20048;-65
2022/12/18 03:27:00;;;;;;;15.07;7.97;;;0.50;99.90;;;;;;5086134;28;20067;-68
2022/12/18 03:29:38;;;;;;;17.10;8.65;;;0.50;99.90;;;;;;5087997;28;20036;-64
2022/12/18 03:32:10;;;;;;;13.20;8.73;;;0.50;99.90;;;;;;5086701;28;20051;-69
2022/12/18 03:34:40;;;;;;;11.25;6.32;;;0.60;99.90;;;;;;5080519;28;20122;-65
2022/12/18 03:37:09;;;;;;;16.98;7.82;;;0.50;99.90;;;;;;5082574;28;20039;-65
2022/12/18 03:39:36;;;;;;;10.80;7.65;;;0.60;99.90;;;;;;5101041;28;20055;-65
2022/12/18 03:42:13;;;;;;;11.48;7.68;;;0.50;99.90;;;;;;5089889;28;20043;-66
2022/12/18 03:45:12;;;;;;;15.00;8.90;;;0.50;99.90;;;;;;5086151;28;20050;-65
2022/12/18 03:48:03;;;;;;;17.85;8.20;;;0.50;99.90;;;;;;5076017;28;20690;-65
2022/12/18 03:50:57;;;;;;;13.15;8.60;;;0.50;99.90;;;;;;5078986;28;20105;-65
2022/12/18 03:53:39;;;;;;;15.07;7.18;;;0.40;99.90;;;;;;5095521;28;20124;-65
2022/12/18 03:56:08;;;;;;;17.50;8.35;;;0.40;99.90;;;;;;5089759;28;20515;-68
2022/12/18 03:58:40;;;;;;;12.27;7.50;;;0.40;99.90;;;;;;5080900;28;20055;-64
2022/12/18 04:01:19;;;;;;;13.80;8.05;;;0.40;99.90;;;;;;5085661;28;20073;-67
2022/12/18 04:03:49;;;;;;;16.20;7.88;;;0.40;99.90;;;;;;5097855;27;20056;-67
2022/12/18 04:06:18;;;;;;;16.95;9.20;;;0.40;99.90;;;;;;5078045;28;20040;-70
2022/12/18 04:08:46;;;;;;;13.68;7.60;;;0.40;99.90;;;;;;5085786;28;20047;-71
2022/12/18 04:11:16;;;;;;;17.08;8.25;;;0.40;99.90;;;;;;5078734;28;20058;-65
2022/12/18 04:13:45;;;;;;;15.60;8.70;;;0.40;99.90;;;;;;5086036;28;20050;-67
2022/12/18 04:16:21;;;;;;;13.70;8.18;;;0.50;99.90;;;;;;5095358;28;20150;-65
2022/12/18 04:18:51;;;;;;;;;;;0.50;99.90;;;;;;5086414;28;20066;-64
2022/12/18 04:21:20;;;;;;;14.13;7.93;;;0.60;99.90;;;;;;5085288;28;19951;-67
2022/12/18 04:23:48;;;;;;;17.02;8.95;;;0.60;99.90;;;;;;5099585;28;20089;-64
2022/12/18 04:26:17;;;;;;;15.93;5.53;;;0.70;99.90;;;;;;5083434;28;20079;-68
2022/12/18 04:28:53;;;;;;;13.30;7.72;;;0.70;99.90;;;;;;5084890;28;20051;-68
2022/12/18 04:31:21;;;;;;;16.40;7.70;;;0.70;99.90;;;;;;5082437;28;20059;-69
2022/12/18 04:33:48;;;;;;;12.30;7.40;;;0.70;99.90;;;;;;5083030;28;20055;-68
2022/12/18 04:36:16;;;;;;;15.52;9.02;;;0.80;99.90;;;;;;5082440;28;20311;-69
2022/12/18 04:38:44;;;;;;;17.52;8.02;;;0.90;99.90;;;;;;5077722;28;20047;-67
2022/12/18 04:41:14;;;;;;;14.10;8.45;;;0.90;99.90;;;;;;5084499;28;20055;-69
2022/12/18 04:43:43;;;;;;;16.63;7.95;;;1.00;99.90;;;;;;5083903;28;20158;-67
2022/12/18 04:46:10;;;;;;;17.08;8.90;;;1.00;99.90;;;;;;5101604;28;20474;-67
2022/12/18 04:48:37;;;;;;;22.75;11.45;;;1.00;99.90;;;;;;5100800;28;20044;-67
2022/12/18 04:51:05;;;;;;;15.88;7.65;;;1.00;99.90;;;;;;5101983;28;20043;-67
2022/12/18 04:53:32;;;;;;;15.18;9.15;;;1.00;99.90;;;;;;5098328;28;20036;-66
2022/12/18 04:56:05;;;;;;;13.13;8.75;;;1.00;99.90;;;;;;5097663;27;20461;-65
2022/12/18 04:58:32;;;;;;;14.02;9.65;;;1.00;99.90;;;;;;5100180;28;20476;-66
2022/12/18 05:00:59;;;;;;;13.45;8.80;;;1.00;99.90;;;;;;5102328;28;20035;-66
2022/12/18 05:03:26;;;;;;;15.43;11.85;;;1.00;99.90;;;;;;5101528;28;20039;-68
2022/12/18 05:05:52;;;;;;;11.43;7.28;;;1.00;99.90;;;;;;5102099;28;20050;-65
2022/12/18 05:08:19;;;;;;;13.00;9.18;;;0.90;99.90;;;;;;5100056;28;20052;-66
2022/12/18 05:10:46;;;;;;;17.20;9.35;;;0.90;99.90;;;;;;5098160;28;20414;-67
2022/12/18 05:13:13;;;;;;;20.83;12.05;;;0.90;99.90;;;;;;5102680;28;20066;-65
2022/12/18 05:15:41;;;;;;;30.85;19.02;;;1.00;99.90;;;;;;5101314;28;20048;-65
2022/12/18 05:18:08;;;;;;;14.10;10.50;;;1.00;99.90;;;;;;5102949;28;20040;-66
2022/12/18 05:20:35;;;;;;;19.00;10.43;;;1.00;99.90;;;;;;5103193;28;20044;-64
2022/12/18 05:23:02;;;;;;;17.23;12.30;;;1.00;99.90;;;;;;5100586;28;20173;-68
2022/12/18 05:25:29;;;;;;;17.00;10.50;;;1.10;99.90;;;;;;5095933;28;20044;-68
2022/12/18 05:27:56;;;;;;;18.83;10.32;;;1.10;99.90;;;;;;5097281;28;20124;-65
2022/12/18 05:30:23;;;;;;;13.77;8.85;;;1.10;99.90;;;;;;5102486;28;20154;-65
2022/12/18 05:32:50;;;;;;;19.02;11.70;;;1.20;99.90;;;;;;5097838;28;20055;-65
2022/12/18 05:35:17;;;;;;;21.50;13.27;;;1.20;99.90;;;;;;5098232;28;20051;-66
2022/12/18 05:37:44;;;;;;;17.58;11.98;;;1.20;99.90;;;;;;5100447;28;20421;-65
2022/12/18 05:40:12;;;;;;;17.90;10.68;;;1.30;99.90;;;;;;5100527;28;20053;-68
2022/12/18 05:42:38;;;;;;;15.63;9.63;;;1.30;99.90;;;;;;5095518;28;20043;-69
2022/12/18 05:45:06;;;;;;;19.55;10.23;;;1.20;99.90;;;;;;5098770;28;20760;-65
2022/12/18 05:47:33;;;;;;;13.07;9.55;;;1.30;99.90;;;;;;5094137;28;20268;-64
2022/12/18 05:50:00;;;;;;;14.43;10.35;;;1.30;99.90;;;;;;5097373;28;20047;-66
2022/12/18 05:52:27;;;;;;;17.15;12.52;;;1.20;99.90;;;;;;5098359;28;20519;-68
2022/12/18 05:54:54;;;;;;;15.32;10.35;;;1.30;99.90;;;;;;5098091;28;20036;-66
2022/12/18 05:57:21;;;;;;;28.38;13.95;;;1.30;99.90;;;;;;5096046;27;20373;-66
2022/12/18 05:59:48;;;;;;;14.02;9.60;;;1.30;99.90;;;;;;5100605;28;20051;-66
2022/12/18 06:02:15;;;;;;;14.38;8.82;;;1.30;99.90;;;;;;5098972;28;20085;-66
2022/12/18 06:04:42;;;;;;;11.40;9.77;;;1.30;99.90;;;;;;5099548;28;20055;-66
2022/12/18 06:07:08;;;;;;;11.77;8.13;;;1.30;99.90;;;;;;5101787;28;20334;-64
2022/12/18 06:09:35;;;;;;;12.63;9.00;;;1.30;99.90;;;;;;5097105;28;20044;-64
2022/12/18 06:12:02;;;;;;;15.73;10.10;;;1.40;99.90;;;;;;5098775;28;20040;-65
2022/12/18 06:14:29;;;;;;;11.43;8.55;;;1.40;99.90;;;;;;5094903;28;20040;-69
2022/12/18 06:16:56;;;;;;;9.15;6.57;;;1.50;99.90;;;;;;5097819;28;20158;-64
2022/12/18 06:19:23;;;;;;;7.53;5.82;;;1.50;99.90;;;;;;5099856;28;20051;-63
2022/12/18 06:21:50;;;;;;;11.38;6.95;;;1.40;99.90;;;;;;5099160;28;20444;-64
2022/12/18 06:24:17;;;;;;;9.27;5.90;;;1.50;99.90;;;;;;5098786;28;20058;-66
2022/12/18 06:26:43;;;;;;;7.90;5.05;;;1.50;99.90;;;;;;5100419;28;20438;-64
2022/12/18 06:29:10;;;;;;;10.15;6.88;;;1.50;99.90;;;;;;5097467;28;20047;-64
2022/12/18 06:31:37;;;;;;;10.60;8.20;;;1.50;99.90;;;;;;5101368;28;20060;-65
2022/12/18 06:34:04;;;;;;;10.73;8.20;;;1.50;99.90;;;;;;5100123;28;20139;-64
2022/12/18 06:36:31;;;;;;;9.18;6.35;;;1.60;99.90;;;;;;5098293;28;20405;-67
2022/12/18 06:38:58;;;;;;;11.75;6.20;;;1.60;99.90;;;;;;5098028;28;20138;-65
2022/12/18 06:41:25;;;;;;;12.10;6.40;;;1.60;99.90;;;;;;5102262;28;20122;-69
2022/12/18 06:43:52;;;;;;;9.57;5.15;;;1.60;99.90;;;;;;5100127;28;20044;-68
2022/12/18 06:46:25;;;;;;;6.82;4.80;;;1.60;99.90;;;;;;5097362;28;20108;-64
2022/12/18 06:48:52;;;;;;;12.35;4.38;;;1.60;99.90;;;;;;5101048;28;20413;-64
2022/12/18 06:51:23;;;;;;;6.32;4.60;;;1.70;99.90;;;;;;5102383;28;20377;-68
2022/12/18 06:53:50;;;;;;;6.25;4.22;;;1.70;99.90;;;;;;5100684;28;20059;-64
2022/12/18 06:56:17;;;;;;;6.65;4.00;;;1.70;99.90;;;;;;5097747;28;20150;-65
2022/12/18 06:58:44;;;;;;;7.82;3.95;;;1.70;99.90;;;;;;5101204;28;20098;-71
2022/12/18 07:01:12;;;;;;;9.15;5.07;;;1.70;99.90;;;;;;5096166;28;20409;-68
2022/12/18 07:03:40;;;;;;;19.10;5.53;;;1.70;99.90;;;;;;5096817;28;20063;-67
2022/12/18 07:06:16;;;;;;;8.80;4.25;;;1.80;99.90;;;;;;5094076;28;20124;-64
2022/12/18 07:08:44;;;;;;;11.32;4.90;;;1.80;99.90;;;;;;5094847;28;20056;-68
2022/12/18 07:11:10;;;;;;;8.88;4.28;;;1.80;99.90;;;;;;5095300;28;20422;-66
2022/12/18 07:13:38;;;;;;;8.55;4.70;;;1.80;99.90;;;;;;5092887;28;20047;-69
2022/12/18 07:16:10;;;;;;;8.68;4.13;;;1.90;99.90;;;;;;5093188;28;20051;-64
2022/12/18 07:18:48;;;;;;;6.85;4.10;;;1.90;99.90;;;;;;5089571;28;20035;-64
2022/12/18 07:21:17;;;;;;;8.52;4.53;;;1.90;99.90;;;;;;5089808;28;20465;-66
2022/12/18 07:23:47;;;;;;;7.45;4.97;;;1.90;99.90;;;;;;5095721;28;20134;-64
2022/12/18 07:26:17;;;;;;;7.40;5.10;;;2.00;99.90;;;;;;5088997;28;20048;-65
2022/12/18 07:28:44;;;;;;;6.72;4.07;;;2.00;99.90;;;;;;5091071;28;20043;-68
2022/12/18 07:31:14;;;;;;;7.78;3.83;;;2.00;99.90;;;;;;5089772;28;20446;-71
2022/12/18 07:33:41;;;;;;;8.13;3.67;;;2.00;99.90;;;;;;5090648;28;20063;-66
2022/12/18 07:36:09;;;;;;;6.43;3.67;;;2.00;99.90;;;;;;5093614;28;20473;-66
2022/12/18 07:38:36;;;;;;;7.30;3.45;;;2.00;99.90;;;;;;5090330;28;20473;-67
2022/12/18 07:41:08;;;;;;;8.85;3.72;;;2.10;99.90;;;;;;5088160;28;20054;-66
2022/12/18 07:43:36;;;;;;;5.50;4.18;;;2.10;99.90;;;;;;5090829;28;20079;-63
2022/12/18 07:46:04;;;;;;;7.20;3.47;;;2.20;99.90;;;;;;5090890;28;20092;-65
2022/12/18 07:48:31;;;;;;;9.85;3.65;;;2.20;99.90;;;;;;5090704;28;20097;-64
2022/12/18 07:50:59;;;;;;;16.08;3.83;;;2.30;99.90;;;;;;5091565;28;20523;-65
2022/12/18 07:53:26;;;;;;;4.88;2.83;;;2.30;99.90;;;;;;5090851;28;20040;-65
2022/12/18 07:55:57;;;;;;;8.18;3.53;;;2.30;99.90;;;;;;5091489;28;20043;-66
2022/12/18 07:58:44;;;;;;;5.70;2.40;;;2.40;99.90;;;;;;5088859;28;20044;-66
2022/12/18 08:01:13;;;;;;;4.45;3.13;;;2.40;99.90;;;;;;5091991;28;20089;-70
2022/12/18 08:03:41;;;;;;;4.18;2.63;;;2.50;99.90;;;;;;5094746;28;20062;-69
2022/12/18 08:06:09;;;;;;;6.03;3.40;;;2.50;99.90;;;;;;5089433;28;20040;-67
2022/12/18 08:08:36;;;;;;;7.75;3.03;;;2.50;99.90;;;;;;5089815;28;20054;-69
2022/12/18 08:11:03;;;;;;;6.13;3.30;;;2.50;99.90;;;;;;5094967;28;20599;-66
2022/12/18 08:13:31;;;;;;;6.25;3.70;;;2.50;99.90;;;;;;5092486;28;20136;-69
2022/12/18 08:16:06;;;;;;;4.82;3.08;;;2.60;99.90;;;;;;5090947;27;20062;-70
2022/12/18 08:18:37;;;;;;;5.10;2.97;;;2.60;99.90;;;;;;5091957;28;20048;-72
2022/12/18 08:21:11;;;;;;;4.80;2.83;;;2.60;99.90;;;;;;5087520;28;20042;-66
2022/12/18 08:23:39;;;;;;;4.97;2.40;;;2.70;99.90;;;;;;5093336;27;20059;-65
2022/12/18 08:26:10;;;;;;;4.40;3.22;;;2.70;99.90;;;;;;5092514;27;20040;-66
2022/12/18 08:28:38;;;;;;;7.60;3.95;;;2.80;99.90;;;;;;5088953;28;20082;-66
2022/12/18 08:31:05;;;;;;;11.90;3.38;;;2.80;99.90;;;;;;5098074;28;20053;-69
2022/12/18 08:33:32;;;;;;;5.18;3.28;;;2.80;99.90;;;;;;5096009;28;20101;-65
2022/12/18 08:36:00;;;;;;;5.85;2.95;;;2.90;99.90;;;;;;5088545;27;20050;-65
2022/12/18 08:38:28;;;;;;;8.85;3.35;;;2.80;99.90;;;;;;5085409;27;20059;-68
2022/12/18 08:41:10;;;;;;;10.80;4.13;;;2.80;99.90;;;;;;5096838;28;20102;-64
2022/12/18 08:46:25;;;;;;;11.02;3.03;;;2.90;99.90;;;;;;5092885;28;20257;-65
2022/12/18 08:48:52;;;;;;;4.47;2.60;;;2.80;99.90;;;;;;5092898;27;20059;-65
2022/12/18 08:51:20;;;;;;;8.43;3.97;;;2.80;99.90;;;;;;5094408;27;20105;-64
2022/12/18 08:53:47;;;;;;;4.57;3.03;;;2.80;99.90;;;;;;5092230;27;20040;-65
2022/12/18 08:56:15;;;;;;;7.40;3.55;;;2.80;99.90;;;;;;5092589;28;20070;-65
2022/12/18 08:58:42;;;;;;;5.25;3.15;;;2.80;99.90;;;;;;5090210;28;20040;-66
2022/12/18 09:01:11;;;;;;;3.00;2.63;;;2.80;99.90;;;;;;5092499;28;20040;-66
2022/12/18 09:03:39;;;;;;;12.38;3.67;;;2.90;99.90;;;;;;5093494;28;20043;-66
2022/12/18 09:06:07;;;;;;;5.35;2.90;;;2.80;99.90;;;;;;5094530;27;20137;-65
2022/12/18 09:08:34;;;;;;;6.03;2.90;;;2.80;99.90;;;;;;5090677;27;20135;-66
2022/12/18 09:11:01;;;;;;;13.00;3.97;;;2.80;99.90;;;;;;5090917;27;20211;-65
2022/12/18 09:13:28;;;;;;;6.97;3.83;;;2.80;99.90;;;;;;5091972;28;20139;-65
2022/12/18 09:15:55;;;;;;;10.95;3.33;;;2.80;99.90;;;;;;5088135;28;20133;-67
2022/12/18 09:18:23;;;;;;;6.28;3.20;;;2.80;99.90;;;;;;5094214;28;20060;-67
2022/12/18 09:20:52;;;;;;;6.38;3.15;;;2.90;99.90;;;;;;5096552;27;20716;-67
2022/12/18 09:23:20;;;;;;;14.65;5.85;;;2.90;99.90;;;;;;5094496;28;20385;-67
2022/12/18 09:25:47;;;;;;;6.32;2.92;;;2.90;99.90;;;;;;5089247;28;20058;-66
2022/12/18 09:28:17;;;;;;;7.45;3.10;;;2.90;99.90;;;;;;5093195;28;20048;-67
2022/12/18 09:30:46;;;;;;;7.43;5.28;;;2.90;99.90;;;;;;5100909;28;20470;-67
2022/12/18 09:33:13;;;;;;;7.50;4.07;;;2.90;99.90;;;;;;5095307;28;20059;-68
2022/12/18 09:35:42;;;;;;;10.10;3.70;;;2.90;99.90;;;;;;5097622;27;20048;-66
2022/12/18 09:38:12;;;;;;;8.98;3.33;;;2.90;99.90;;;;;;5097104;28;20063;-66
2022/12/18 09:40:47;;;;;;;3.17;2.53;;;2.90;99.90;;;;;;5092304;27;20047;-66
2022/12/18 09:43:24;;;;;;;5.03;3.15;;;3.00;99.90;;;;;;5096311;28;20082;-71
2022/12/18 09:46:01;;;;;;;7.10;2.95;;;2.90;99.90;;;;;;5091986;27;20047;-66
2022/12/18 09:48:32;;;;;;;11.18;3.15;;;2.90;99.90;;;;;;5096813;28;20104;-68
2022/12/18 09:51:05;;;;;;;10.80;4.50;;;2.90;99.90;;;;;;5097545;28;20071;-69
2022/12/18 09:53:35;;;;;;;5.00;3.60;;;2.90;99.90;;;;;;5098905;28;20042;-66
2022/12/18 09:56:04;;;;;;;7.88;3.38;;;2.90;99.90;;;;;;5096389;28;20089;-68
2022/12/18 09:58:47;;;;;;;3.92;3.55;;;2.90;99.90;;;;;;5090100;28;20146;-67
2022/12/18 10:01:24;;;;;;;4.90;3.60;;;2.90;99.90;;;;;;5090283;28;20103;-69
2022/12/18 10:03:59;;;;;;;12.60;4.28;;;2.90;99.90;;;;;;5096027;28;20547;-66
2022/12/18 10:06:38;;;;;;;6.43;3.70;;;2.90;99.90;;;;;;5094675;28;20040;-67
2022/12/18 10:09:32;;;;;;;8.43;4.28;;;2.90;99.90;;;;;;5098706;27;20055;-67
2022/12/18 10:12:07;;;;;;;6.88;3.35;;;2.90;99.90;;;;;;5092106;27;20661;-65
2022/12/18 10:15:03;;;;;;;6.68;3.33;;;2.90;99.90;;;;;;5096516;28;20056;-67
2022/12/18 10:18:02;;;;;;;8.57;3.70;;;3.00;99.90;;;;;;5084485;28;20036;-70
2022/12/18 10:20:44;;;;;;;9.40;4.00;;;3.00;99.90;;;;;;5089147;28;20052;-68
2022/12/18 10:23:24;;;;;;;5.28;2.92;;;3.00;99.90;;;;;;5091234;28;20067;-69
2022/12/18 10:26:04;;;;;;;6.00;2.72;;;3.00;99.90;;;;;;5093532;28;20056;-67
2022/12/18 10:28:35;;;;;;;5.35;2.65;;;3.00;99.90;;;;;;5090950;27;22159;-66
2022/12/18 10:31:06;;;;;;;7.97;3.85;;;3.00;99.90;;;;;;5098584;27;20048;-65
2022/12/18 10:33:34;;;;;;;5.20;2.97;;;3.00;99.90;;;;;;5090485;28;20064;-66
2022/12/18 10:36:01;;;;;;;6.78;3.65;;;3.00;99.90;;;;;;5094881;28;20045;-67
2022/12/18 10:38:29;;;;;;;7.47;4.38;;;3.00;99.90;;;;;;5090269;28;20040;-67
2022/12/18 10:41:03;;;;;;;5.53;3.60;;;3.00;99.90;;;;;;5093884;28;20052;-67
2022/12/18 10:43:34;;;;;;;7.70;3.63;;;2.90;99.90;;;;;;5100359;28;20079;-67
2022/12/18 10:46:05;;;;;;;9.82;5.05;;;2.90;99.90;;;;;;5098390;28;20682;-68
2022/12/18 10:48:36;;;;;;;6.72;3.67;;;2.90;99.90;;;;;;5094527;28;20502;-67
2022/12/18 10:51:05;;;;;;;9.80;4.60;;;2.90;99.90;;;;;;5093665;28;20067;-66
2022/12/18 10:53:41;;;;;;;8.98;3.45;;;2.90;99.90;;;;;;5092291;28;20047;-70
2022/12/18 10:56:08;;;;;;;7.82;3.80;;;2.80;99.90;;;;;;5085519;28;20071;-67
2022/12/18 10:58:38;;;;;;;6.15;3.38;;;2.80;99.90;;;;;;5082497;28;20047;-69
2022/12/18 11:01:12;;;;;;;9.93;4.68;;;2.80;99.90;;;;;;5084957;28;20040;-67
2022/12/18 11:03:58;;;;;;;7.85;3.22;;;2.70;99.90;;;;;;5093433;28;20752;-68
2022/12/18 11:06:29;;;;;;;5.80;4.03;;;2.70;99.90;;;;;;5098429;28;20594;-69
2022/12/18 11:09:17;;;;;;;6.65;3.92;;;2.70;99.90;;;;;;5098818;28;20482;-67
2022/12/18 11:11:56;;;;;;;13.20;4.35;;;2.70;99.90;;;;;;5092308;28;20044;-66
2022/12/18 11:14:47;;;;;;;3.67;2.60;;;2.70;99.90;;;;;;5083464;28;20435;-67
2022/12/18 11:17:30;;;;;;;7.13;3.85;;;2.70;99.90;;;;;;5091647;28;20631;-67
2022/12/18 11:20:07;;;;;;;15.45;4.10;;;2.80;99.90;;;;;;5098335;28;20048;-70
2022/12/18 11:22:36;;;;;;;8.10;3.40;;;2.80;99.90;;;;;;5097774;28;20143;-67
2022/12/18 11:25:03;;;;;;;6.78;2.75;;;2.80;99.90;;;;;;5096501;28;20044;-67
2022/12/18 11:27:57;;;;;;;4.32;3.47;;;2.80;99.90;;;;;;5099744;28;20131;-66
2022/12/18 11:30:33;;;;;;;12.63;4.72;;;2.80;99.90;;;;;;5096154;28;20051;-68
2022/12/18 11:33:15;;;;;;;9.05;4.28;;;2.80;99.90;;;;;;5091288;28;20135;-66
2022/12/18 11:36:03;;;;;;;10.73;3.75;;;2.80;99.90;;;;;;5083425;28;20086;-67
2022/12/18 11:38:34;;;;;;;7.35;3.70;;;2.80;99.90;;;;;;5094345;28;20134;-68
2022/12/18 11:44:23;;;;;;;7.15;4.05;;;2.70;99.90;;;;;;5091184;28;20143;-70
2022/12/18 11:46:57;;;;;;;9.43;3.85;;;2.80;99.90;;;;;;5101521;28;20107;-66
2022/12/18 11:49:29;;;;;;;9.05;3.20;;;2.80;99.90;;;;;;5103013;28;20083;-66
2022/12/18 11:52:19;;;;;;;16.42;3.35;;;2.80;99.90;;;;;;5100545;28;20119;-66
2022/12/18 11:54:46;;;;;;;;;;;2.70;99.90;;;;;;5097503;28;20146;-66
2022/12/18 11:57:28;;;;;;;4.22;3.10;;;2.70;99.90;;;;;;5095041;28;20019;-70
2022/12/18 12:00:17;;;;;;;4.25;3.10;;;2.70;99.90;;;;;;5096176;28;20049;-67
2022/12/18 12:02:50;;;;;;;7.30;4.45;;;2.70;99.90;;;;;;5103634;28;20047;-66
2022/12/18 12:05:58;;;;;;;7.40;4.13;;;2.60;99.90;;;;;;5100501;28;20634;-67
2022/12/18 12:08:48;;;;;;;7.68;4.00;;;2.60;99.90;;;;;;5096077;28;20051;-68
2022/12/18 12:11:56;;;;;;;6.20;3.60;;;2.50;99.90;;;;;;5102912;27;20048;-68
2022/12/18 12:14:46;;;;;;;7.93;5.03;;;2.50;99.90;;;;;;4999453;28;20056;-66
2022/12/18 12:17:28;;;;;;;5.78;3.78;;;2.50;99.90;;;;;;5063258;28;20036;-66
2022/12/18 12:20:05;;;;;;;9.45;4.60;;;2.40;99.90;;;;;;5097925;28;20067;-67
2022/12/18 12:22:48;;;;;;;9.05;5.07;;;2.40;99.90;;;;;;5093685;28;20076;-69
2022/12/18 12:25:32;;;;;;;7.07;4.47;;;2.40;99.90;;;;;;5094077;28;20713;-70
2022/12/18 12:28:24;;;;;;;8.73;4.78;;;2.40;99.90;;;;;;5099492;28;20417;-68
2022/12/18 12:31:48;;;;;;;8.95;5.10;;;2.40;99.90;;;;;;5097438;28;20078;-68
2022/12/18 12:34:18;;;;;;;7.35;4.50;;;2.40;99.90;;;;;;4993762;28;20563;-69
2022/12/18 12:36:50;;;;;;;11.85;5.57;;;2.30;99.90;;;;;;5001923;28;20056;-65
2022/12/18 12:39:22;;;;;;;9.60;5.00;;;2.30;99.90;;;;;;5070285;28;20047;-67
2022/12/18 12:44:44;;;;;;;14.75;5.63;;;2.20;99.90;;;;;;5097874;28;20063;-68
2022/12/18 12:47:18;;;;;;;8.15;5.20;;;2.20;99.90;;;;;;5089612;28;20043;-67
2022/12/18 12:49:47;;;;;;;10.95;4.90;;;2.20;99.90;;;;;;5094295;28;20044;-67
2022/12/18 12:52:32;;;;;;;12.65;5.82;;;2.20;99.90;;;;;;5088750;28;20047;-70
2022/12/18 12:55:01;;;;;;;8.45;6.07;;;2.20;99.90;;;;;;5095730;28;20486;-67
2022/12/18 12:57:36;;;;;;;9.25;4.97;;;2.20;99.90;;;;;;5091909;28;20039;-72
2022/12/18 13:00:14;;;;;;;11.05;5.15;;;2.20;99.90;;;;;;5097172;28;20536;-69
2022/12/18 13:02:54;;;;;;;8.77;6.25;;;2.20;99.90;;;;;;5092077;28;20066;-67
2022/12/18 13:05:41;;;;;;;8.45;4.88;;;2.20;99.90;;;;;;5094891;28;20044;-67
2022/12/18 13:08:22;;;;;;;15.07;6.18;;;2.10;99.90;;;;;;5094795;27;20121;-66
2022/12/18 13:12:55;;;;;;;12.10;4.78;;;2.10;99.90;;;;;;5095115;28;20048;-65
2022/12/18 13:13:54;;;;;;;7.05;5.18;;;2.10;99.90;;;;;;5096389;28;20054;-66
2022/12/18 13:16:27;;;;;;;10.98;5.40;;;2.10;99.90;;;;;;5092684;28;20489;-67
2022/12/18 13:18:59;;;;;;;10.73;4.97;;;2.10;99.90;;;;;;5090129;28;20500;-69
2022/12/18 13:21:29;;;;;;;10.75;4.07;;;2.10;99.90;;;;;;5097186;28;20470;-70
2022/12/18 13:24:10;;;;;;;9.63;5.57;;;2.20;99.90;;;;;;5094027;28;20040;-70
2022/12/18 13:26:37;;;;;;;7.72;5.03;;;2.20;99.90;;;;;;5093548;28;20086;-70
2022/12/18 13:29:05;;;;;;;8.88;5.40;;;2.20;99.90;;;;;;5095359;28;20052;-66
2022/12/18 13:31:41;;;;;;;7.88;4.53;;;2.20;99.90;;;;;;5093770;28;20505;-67